createdAt,value
2018-11-23T00:01:32.910Z,4.21
2018-11-23T00:04:02.217Z,4.44
2018-11-23T00:06:31.611Z,4.28
2018-11-23T00:09:00.933Z,4.34
2018-11-23T00:11:30.321Z,4.18
2018-11-23T00:13:59.684Z,4.36
2018-11-23T00:16:29.069Z,4.47
2018-11-23T00:18:58.330Z,4.35
2018-11-23T00:21:27.615Z,4.24
2018-11-23T00:23:57.693Z,4.51
2018-11-23T00:26:26.985Z,4.81
2018-11-23T00:28:56.359Z,4.83
2018-11-23T00:31:25.695Z,4.85
2018-11-23T00:33:55.000Z,4.51
2018-11-23T00:36:24.306Z,4.29
2018-11-23T00:38:53.668Z,4.06
2018-11-23T00:41:23.115Z,4.08
2018-11-23T00:43:52.502Z,4.37
2018-11-23T00:46:21.857Z,4.14
2018-11-23T00:48:51.220Z,4.26
2018-11-23T00:51:20.474Z,4.14
2018-11-23T00:53:49.772Z,4.48
2018-11-23T00:56:19.055Z,4.60
2018-11-23T00:58:48.360Z,4.68
2018-11-23T01:01:17.709Z,4.44
2018-11-23T01:03:46.989Z,4.24
2018-11-23T01:06:16.300Z,4.05
2018-11-23T01:08:45.889Z,3.87
2018-11-23T01:11:15.187Z,3.82
2018-11-23T01:13:44.463Z,4.01
2018-11-23T01:16:13.764Z,3.66
2018-11-23T01:18:43.011Z,3.79
2018-11-23T01:21:12.267Z,3.77
2018-11-23T01:23:41.562Z,3.80
2018-11-23T01:26:10.955Z,4.01
2018-11-23T01:28:40.261Z,3.98
2018-11-23T01:31:09.935Z,3.98
2018-11-23T01:33:39.225Z,3.93
2018-11-23T01:36:08.528Z,3.79
2018-11-23T01:38:38.008Z,4.18
2018-11-23T01:41:07.266Z,4.22
2018-11-23T01:43:36.562Z,4.14
2018-11-23T01:46:05.909Z,3.91
2018-11-23T01:48:35.215Z,3.69
2018-11-23T01:51:04.477Z,3.73
2018-11-23T01:53:34.456Z,4.03
2018-11-23T01:56:03.757Z,4.12
2018-11-23T01:58:33.160Z,4.29
2018-11-23T02:01:02.520Z,4.33
2018-11-23T02:03:31.791Z,3.97
2018-11-23T02:06:01.106Z,4.11
2018-11-23T02:08:30.527Z,4.04
2018-11-23T02:10:59.794Z,3.77
2018-11-23T02:13:29.044Z,3.63
2018-11-23T02:15:58.768Z,3.94
2018-11-23T02:18:28.099Z,3.82
2018-11-23T02:20:57.442Z,3.87
2018-11-23T02:23:26.779Z,3.97
2018-11-23T02:25:56.222Z,4.12
2018-11-23T02:28:25.508Z,4.10
2018-11-23T02:30:54.832Z,4.17
2018-11-23T02:33:24.115Z,4.13
2018-11-23T02:35:53.448Z,4.19
2018-11-23T02:38:23.010Z,4.11
2018-11-23T02:40:52.347Z,4.29
2018-11-23T02:43:21.626Z,4.34
2018-11-23T02:45:50.978Z,4.21
2018-11-23T02:48:20.431Z,4.11
2018-11-23T02:50:49.853Z,4.21
2018-11-23T02:53:19.241Z,3.99
2018-11-23T02:55:48.544Z,4.15
2018-11-23T02:58:17.851Z,4.15
2018-11-23T03:00:47.259Z,4.17
2018-11-23T03:03:16.557Z,3.93
2018-11-23T03:05:45.840Z,3.69
2018-11-23T03:08:15.123Z,3.91
2018-11-23T03:10:44.571Z,3.96
2018-11-23T03:13:13.843Z,3.98
2018-11-23T03:15:43.440Z,4.19
2018-11-23T03:18:12.735Z,3.66
2018-11-23T03:20:41.995Z,3.46
2018-11-23T03:23:11.743Z,3.82
2018-11-23T03:25:41.039Z,3.97
2018-11-23T03:28:10.392Z,3.70
2018-11-23T03:30:39.700Z,3.58
2018-11-23T03:33:08.956Z,3.90
2018-11-23T03:35:38.239Z,4.15
2018-11-23T03:38:07.567Z,4.21
2018-11-23T03:40:36.817Z,3.96
2018-11-23T03:43:06.073Z,3.69
2018-11-23T03:45:35.492Z,3.45
2018-11-23T03:48:11.408Z,3.59
2018-11-23T03:50:40.769Z,3.87
2018-11-23T03:53:10.159Z,3.76
2018-11-23T03:55:39.423Z,3.95
2018-11-23T03:58:08.760Z,3.78
2018-11-23T04:00:38.097Z,3.65
2018-11-23T04:03:07.376Z,3.67
2018-11-23T04:05:37.034Z,3.80
2018-11-23T04:08:06.337Z,3.99
2018-11-23T04:10:35.605Z,4.19
2018-11-23T04:13:04.840Z,4.33
2018-11-23T04:15:34.278Z,4.15
2018-11-23T04:18:03.525Z,4.14
2018-11-23T04:20:32.928Z,3.75
2018-11-23T04:23:02.210Z,3.64
2018-11-23T04:25:31.530Z,3.81
2018-11-23T04:28:01.183Z,3.61
2018-11-23T04:30:30.439Z,3.87
2018-11-23T04:32:59.734Z,3.74
2018-11-23T04:35:29.132Z,3.74
2018-11-23T04:37:58.521Z,4.01
2018-11-23T04:40:34.438Z,3.69
2018-11-23T04:43:03.685Z,3.65
2018-11-23T04:45:32.931Z,3.63
2018-11-23T04:48:02.792Z,3.55
2018-11-23T04:50:32.088Z,3.69
2018-11-23T04:53:01.596Z,3.54
2018-11-23T04:55:30.909Z,3.38
2018-11-23T04:58:00.191Z,3.54
2018-11-23T05:00:29.512Z,3.72
2018-11-23T05:02:58.819Z,3.90
2018-11-23T05:05:28.090Z,3.67
2018-11-23T05:07:57.430Z,3.26
2018-11-23T05:10:26.929Z,3.68
2018-11-23T05:12:56.753Z,3.68
2018-11-23T05:15:26.075Z,3.46
2018-11-23T05:17:55.423Z,3.62
2018-11-23T05:20:24.736Z,3.44
2018-11-23T05:22:54.016Z,3.52
2018-11-23T05:25:23.386Z,3.74
2018-11-23T05:27:52.658Z,3.81
2018-11-23T05:30:22.424Z,3.83
2018-11-23T05:32:52.190Z,3.81
2018-11-23T05:35:21.671Z,3.87
2018-11-23T05:37:51.079Z,3.96
2018-11-23T05:40:21.356Z,3.91
2018-11-23T05:42:50.600Z,3.92
2018-11-23T05:45:21.270Z,3.82
2018-11-23T05:47:50.896Z,3.74
2018-11-23T05:50:22.011Z,3.46
2018-11-23T05:52:51.916Z,3.28
2018-11-23T05:55:21.520Z,3.63
2018-11-23T05:57:51.058Z,3.67
2018-11-23T06:00:22.121Z,3.82
2018-11-23T06:02:51.711Z,4.02
2018-11-23T06:05:21.162Z,3.93
2018-11-23T06:07:50.551Z,4.24
2018-11-23T06:10:20.726Z,4.39
2018-11-23T06:12:49.978Z,4.31
2018-11-23T06:15:20.910Z,4.36
2018-11-23T06:17:50.856Z,4.30
2018-11-23T06:20:22.187Z,4.50
2018-11-23T06:22:52.440Z,4.27
2018-11-23T06:25:39.494Z,4.42
2018-11-23T06:28:08.767Z,4.16
2018-11-23T06:30:38.036Z,4.18
2018-11-23T06:33:24.517Z,4.15
2018-11-23T06:35:53.778Z,3.97
2018-11-23T06:38:23.068Z,4.32
2018-11-23T06:40:52.480Z,4.36
2018-11-23T06:43:21.818Z,4.29
2018-11-23T06:45:51.155Z,4.10
2018-11-23T06:48:20.421Z,3.89
2018-11-23T06:50:49.653Z,3.68
2018-11-23T06:53:18.910Z,3.92
2018-11-23T06:55:48.393Z,3.91
2018-11-23T06:58:17.700Z,3.66
2018-11-23T07:00:47.176Z,3.88
2018-11-23T07:03:16.647Z,3.88
2018-11-23T07:05:45.957Z,4.01
2018-11-23T07:08:15.459Z,4.00
2018-11-23T07:10:44.817Z,3.78
2018-11-23T07:13:14.303Z,3.82
2018-11-23T07:15:43.636Z,4.13
2018-11-23T07:18:13.075Z,4.25
2018-11-23T07:20:42.608Z,3.84
2018-11-23T07:23:11.924Z,3.64
2018-11-23T07:25:41.423Z,3.83
2018-11-23T07:28:15.496Z,3.95
2018-11-23T07:30:40.241Z,3.99
2018-11-23T07:33:09.580Z,4.03
2018-11-23T07:35:38.992Z,4.05
2018-11-23T07:38:08.281Z,3.96
2018-11-23T07:40:55.578Z,3.93
2018-11-23T07:43:24.856Z,3.78
2018-11-23T07:45:54.145Z,4.11
2018-11-23T07:48:23.453Z,4.03
2018-11-23T07:50:52.730Z,4.37
2018-11-23T07:53:22.039Z,4.35
2018-11-23T07:55:52.304Z,4.31
2018-11-23T07:58:21.763Z,4.34
2018-11-23T08:00:51.439Z,4.26
2018-11-23T08:03:20.869Z,4.29
2018-11-23T08:05:50.178Z,4.30
2018-11-23T08:08:19.451Z,4.57
2018-11-23T08:10:47.928Z,4.82
2018-11-23T08:13:17.305Z,4.72
2018-11-23T08:15:46.606Z,4.58
2018-11-23T08:18:16.016Z,4.13
2018-11-23T08:20:45.303Z,4.19
2018-11-23T08:23:14.601Z,4.03
2018-11-23T08:25:44.131Z,4.12
2018-11-23T08:28:13.438Z,4.14
2018-11-23T08:30:42.706Z,4.41
2018-11-23T08:33:12.203Z,4.51
2018-11-23T08:35:41.479Z,4.69
2018-11-23T08:38:10.995Z,4.74
2018-11-23T08:40:40.295Z,4.37
2018-11-23T08:43:09.640Z,4.18
2018-11-23T08:45:39.075Z,3.70
2018-11-23T08:48:08.971Z,3.72
2018-11-23T08:50:38.326Z,4.03
2018-11-23T08:53:07.599Z,4.13
2018-11-23T08:55:36.964Z,3.97
2018-11-23T08:58:06.436Z,4.13
2018-11-23T09:00:35.736Z,4.45
2018-11-23T09:03:05.121Z,4.36
2018-11-23T09:05:34.536Z,4.47
2018-11-23T09:08:03.815Z,4.42
2018-11-23T09:10:33.508Z,4.80
2018-11-23T09:13:04.441Z,4.60
2018-11-23T09:15:33.900Z,4.38
2018-11-23T09:18:03.181Z,4.31
2018-11-23T09:20:32.503Z,4.40
2018-11-23T09:23:01.909Z,4.17
2018-11-23T09:25:31.180Z,4.19
2018-11-23T09:28:00.455Z,4.36
2018-11-23T09:30:30.032Z,4.15
2018-11-23T09:32:59.384Z,4.43
2018-11-23T09:35:29.241Z,4.49
2018-11-23T09:37:58.722Z,4.17
2018-11-23T09:40:29.535Z,4.20
2018-11-23T09:42:58.856Z,4.04
2018-11-23T09:45:32.321Z,4.32
2018-11-23T09:48:02.840Z,4.06
2018-11-23T09:50:32.168Z,4.35
2018-11-23T09:53:03.128Z,4.72
2018-11-23T09:55:33.828Z,4.89
2018-11-23T09:58:03.121Z,4.80
2018-11-23T10:00:34.864Z,4.83
2018-11-23T10:03:04.012Z,4.76
2018-11-23T10:08:04.896Z,5.30
2018-11-23T10:10:34.351Z,5.38
2018-11-23T10:13:03.862Z,5.12
2018-11-23T10:15:33.864Z,4.88
2018-11-23T10:18:03.462Z,4.99
2018-11-23T10:20:34.048Z,5.01
2018-11-23T10:23:03.907Z,4.77
2018-11-23T10:25:34.546Z,5.00
2018-11-23T10:28:03.824Z,4.77
2018-11-23T10:30:34.632Z,4.98
2018-11-23T10:33:05.312Z,4.95
2018-11-23T10:35:34.975Z,4.70
2018-11-23T10:38:05.215Z,4.91
2018-11-23T10:40:37.423Z,5.34
2018-11-23T10:43:07.434Z,5.49
2018-11-23T10:45:37.142Z,5.29
2018-11-23T10:48:07.953Z,5.64
2018-11-23T10:50:38.729Z,5.48
2018-11-23T10:53:08.256Z,5.52
2018-11-23T10:55:38.989Z,5.47
2018-11-23T10:58:08.282Z,5.26
2018-11-23T11:00:42.873Z,5.45
2018-11-23T11:03:17.473Z,5.33
2018-11-23T11:05:52.222Z,5.06
2018-11-23T11:08:21.678Z,5.01
2018-11-23T11:10:51.466Z,5.09
2018-11-23T11:13:21.142Z,5.30
2018-11-23T11:15:50.588Z,4.92
2018-11-23T11:18:19.881Z,4.98
2018-11-23T11:20:49.229Z,5.15
2018-11-23T11:23:18.519Z,5.32
2018-11-23T11:25:47.849Z,5.31
2018-11-23T11:28:17.264Z,5.06
2018-11-23T11:30:46.638Z,4.88
2018-11-23T11:33:15.903Z,4.68
2018-11-23T11:35:45.809Z,4.73
2018-11-23T11:38:15.168Z,5.16
2018-11-23T11:40:44.454Z,5.43
2018-11-23T11:43:13.805Z,5.75
2018-11-23T11:45:43.385Z,5.59
2018-11-23T11:48:12.566Z,5.20
2018-11-23T11:50:42.030Z,5.30
2018-11-23T11:53:11.553Z,5.34
2018-11-23T11:55:40.853Z,5.51
2018-11-23T11:58:10.336Z,5.53
2018-11-23T12:00:39.597Z,5.45
2018-11-23T12:03:09.010Z,5.27
2018-11-23T12:05:44.869Z,5.28
2018-11-23T12:08:14.336Z,5.39
2018-11-23T12:10:43.630Z,5.58
2018-11-23T12:13:13.364Z,5.68
2018-11-23T12:15:42.817Z,5.38
2018-11-23T12:18:12.165Z,5.63
2018-11-23T12:20:41.500Z,5.71
2018-11-23T12:23:10.824Z,5.37
2018-11-23T12:25:40.101Z,5.68
2018-11-23T12:28:09.592Z,5.46
2018-11-23T12:30:38.903Z,5.55
2018-11-23T12:33:08.220Z,5.35
2018-11-23T12:35:38.046Z,5.67
2018-11-23T12:38:07.340Z,5.82
2018-11-23T12:40:36.656Z,5.80
2018-11-23T12:43:06.026Z,5.84
2018-11-23T12:45:35.326Z,5.96
2018-11-23T12:48:04.627Z,6.19
2018-11-23T12:50:34.080Z,5.94
2018-11-23T12:53:06.413Z,6.14
2018-11-23T12:55:32.899Z,6.29
2018-11-23T12:58:02.403Z,6.04
2018-11-23T13:00:31.733Z,6.09
2018-11-23T13:03:02.679Z,6.01
2018-11-23T13:05:33.184Z,5.66
2018-11-23T13:08:04.093Z,5.67
2018-11-23T13:10:33.551Z,5.58
2018-11-23T13:13:03.347Z,5.66
2018-11-23T13:15:32.627Z,5.80
2018-11-23T13:18:02.289Z,5.90
2018-11-23T13:20:31.628Z,6.07
2018-11-23T13:23:01.086Z,6.11
2018-11-23T13:25:31.839Z,6.31
2018-11-23T13:28:01.604Z,6.05
2018-11-23T13:30:32.238Z,6.00
2018-11-23T13:33:01.568Z,5.95
2018-11-23T13:35:31.511Z,6.06
2018-11-23T13:38:00.821Z,6.31
2018-11-23T13:40:30.730Z,5.79
2018-11-23T13:43:00.853Z,5.75
2018-11-23T13:45:32.050Z,5.73
2018-11-23T13:48:01.399Z,5.47
2018-11-23T13:50:31.072Z,5.60
2018-11-23T13:53:01.713Z,5.67
2018-11-23T13:55:31.168Z,5.71
2018-11-23T13:58:01.281Z,5.73
2018-11-23T14:00:30.675Z,5.97
2018-11-23T14:03:00.026Z,6.07
2018-11-23T14:05:31.216Z,6.07
2018-11-23T14:08:01.699Z,6.04
2018-11-23T14:10:31.553Z,5.55
2018-11-23T14:13:00.954Z,5.44
2018-11-23T14:15:31.603Z,5.68
2018-11-23T14:18:01.599Z,5.72
2018-11-23T14:20:31.495Z,5.87
2018-11-23T14:23:00.982Z,5.72
2018-11-23T14:25:31.534Z,5.86
2018-11-23T14:28:00.850Z,5.70
2018-11-23T14:30:31.701Z,5.95
2018-11-23T14:33:01.813Z,5.93
2018-11-23T14:35:32.974Z,5.80
2018-11-23T14:38:02.756Z,5.69
2018-11-23T14:40:32.121Z,5.79
2018-11-23T14:43:01.538Z,5.92
2018-11-23T14:45:32.465Z,6.12
2018-11-23T14:48:05.038Z,6.08
2018-11-23T14:50:35.851Z,6.22
2018-11-23T14:53:05.676Z,6.00
2018-11-23T14:55:35.228Z,5.79
2018-11-23T14:58:04.518Z,5.77
2018-11-23T15:00:37.142Z,6.06
2018-11-23T15:03:07.648Z,6.05
2018-11-23T15:05:37.502Z,6.02
2018-11-23T15:08:07.627Z,5.79
2018-11-23T15:10:37.444Z,5.86
2018-11-23T15:13:07.840Z,5.86
2018-11-23T15:15:38.617Z,5.89
2018-11-23T15:18:09.234Z,5.99
2018-11-23T15:20:43.073Z,6.12
2018-11-23T15:23:14.995Z,6.09
2018-11-23T15:25:45.011Z,6.09
2018-11-23T15:28:15.135Z,5.97
2018-11-23T15:30:45.710Z,5.94
2018-11-23T15:33:16.779Z,6.11
2018-11-23T15:35:46.557Z,5.88
2018-11-23T15:38:18.519Z,6.02
2018-11-23T15:40:48.595Z,6.06
2018-11-23T15:43:18.934Z,6.08
2018-11-23T15:45:48.329Z,5.93
2018-11-23T15:48:17.751Z,6.05
2018-11-23T15:50:47.104Z,5.83
2018-11-23T15:53:17.532Z,5.69
2018-11-23T15:55:46.889Z,5.82
2018-11-23T15:58:17.260Z,5.94
2018-11-23T16:00:48.610Z,5.61
2018-11-23T16:03:18.000Z,5.73
2018-11-23T16:05:47.355Z,6.04
2018-11-23T16:08:19.155Z,6.08
2018-11-23T16:10:48.805Z,5.94
2018-11-23T16:13:18.205Z,6.20
2018-11-23T16:15:47.604Z,6.00
2018-11-23T16:18:16.926Z,6.05
2018-11-23T16:20:47.141Z,6.07
2018-11-23T16:23:18.385Z,6.00
2018-11-23T16:25:48.567Z,6.19
2018-11-23T16:28:17.913Z,6.07
2018-11-23T16:30:48.774Z,5.90
2018-11-23T16:33:21.407Z,5.71
2018-11-23T16:35:50.874Z,5.42
2018-11-23T16:38:21.823Z,5.62
2018-11-23T16:40:53.052Z,5.90
2018-11-23T16:43:22.367Z,5.89
2018-11-23T16:45:51.911Z,6.01
2018-11-23T16:48:21.997Z,6.10
2018-11-23T16:50:51.441Z,6.11
2018-11-23T16:53:20.772Z,6.08
2018-11-23T16:55:50.333Z,5.96
2018-11-23T16:58:19.662Z,5.83
2018-11-23T17:00:49.467Z,5.79
2018-11-23T17:03:20.589Z,5.62
2018-11-23T17:05:51.402Z,5.56
2018-11-23T17:08:20.945Z,5.66
2018-11-23T17:10:50.302Z,5.86
2018-11-23T17:13:19.626Z,6.03
2018-11-23T17:15:48.959Z,5.91
2018-11-23T17:18:18.296Z,6.02
2018-11-23T17:20:47.570Z,6.13
2018-11-23T17:23:16.934Z,6.34
2018-11-23T17:25:46.825Z,6.29
2018-11-23T17:28:16.141Z,6.46
2018-11-23T17:30:45.463Z,6.23
2018-11-23T17:33:14.798Z,6.14
2018-11-23T17:35:44.341Z,6.13
2018-11-23T17:38:13.649Z,6.21
2018-11-23T17:40:43.431Z,6.22
2018-11-23T17:43:12.766Z,6.37
2018-11-23T17:45:42.215Z,6.33
2018-11-23T17:48:12.058Z,6.36
2018-11-23T17:50:41.370Z,6.49
2018-11-23T17:53:10.700Z,6.40
2018-11-23T17:55:40.041Z,6.30
2018-11-23T17:58:09.359Z,6.33
2018-11-23T18:00:39.649Z,6.02
2018-11-23T18:03:08.528Z,6.01
2018-11-23T18:05:37.965Z,6.05
2018-11-23T18:08:07.287Z,5.88
2018-11-23T18:10:37.056Z,5.88
2018-11-23T18:13:06.368Z,6.21
2018-11-23T18:15:36.193Z,6.29
2018-11-23T18:18:06.459Z,6.59
2018-11-23T18:20:36.138Z,6.67
2018-11-23T18:23:06.568Z,6.77
2018-11-23T18:25:38.713Z,6.73
2018-11-23T18:28:09.661Z,6.90
2018-11-23T18:30:39.224Z,6.74
2018-11-23T18:33:09.133Z,6.77
2018-11-23T18:35:38.512Z,6.70
2018-11-23T18:38:11.108Z,6.72
2018-11-23T18:40:40.817Z,6.91
2018-11-23T18:43:10.151Z,6.89
2018-11-23T18:45:39.486Z,6.76
2018-11-23T18:48:08.855Z,6.63
2018-11-23T18:50:38.216Z,6.67
2018-11-23T18:53:07.504Z,6.64
2018-11-23T18:55:37.109Z,6.72
2018-11-23T18:58:06.433Z,6.77
2018-11-23T19:00:35.835Z,6.93
2018-11-23T19:03:06.276Z,7.11
2018-11-23T19:05:35.611Z,6.78
2018-11-23T19:08:04.987Z,6.71
2018-11-23T19:10:34.475Z,6.73
2018-11-23T19:13:03.782Z,6.87
2018-11-23T19:15:33.144Z,6.76
2018-11-23T19:18:02.578Z,6.73
2018-11-23T19:20:32.010Z,6.86
2018-11-23T19:23:01.516Z,6.70
2018-11-23T19:25:30.991Z,6.64
2018-11-23T19:28:02.332Z,6.77
2018-11-23T19:30:31.736Z,6.83
2018-11-23T19:33:01.668Z,6.73
2018-11-23T19:35:30.623Z,6.70
2018-11-23T19:38:00.034Z,6.46
2018-11-23T19:40:29.412Z,6.52
2018-11-23T19:42:58.876Z,6.86
2018-11-23T19:45:28.673Z,6.91
2018-11-23T19:47:58.034Z,6.95
2018-11-23T19:50:27.360Z,7.14
2018-11-23T19:52:56.954Z,7.13
2018-11-23T19:55:26.460Z,6.92
2018-11-23T19:57:55.886Z,6.71
2018-11-23T20:00:29.696Z,6.83
2018-11-23T20:02:59.168Z,6.94
2018-11-23T20:05:28.469Z,7.10
2018-11-23T20:07:58.321Z,7.22
2018-11-23T20:10:28.064Z,7.06
2018-11-23T20:12:58.610Z,7.13
2018-11-23T20:15:28.006Z,7.25
2018-11-23T20:17:57.426Z,7.40
2018-11-23T20:20:26.751Z,7.37
2018-11-23T20:22:56.286Z,7.14
2018-11-23T20:25:25.683Z,7.16
2018-11-23T20:27:55.137Z,7.21
2018-11-23T20:30:24.481Z,7.15
2018-11-23T20:32:53.787Z,7.03
2018-11-23T20:35:23.702Z,6.84
2018-11-23T20:37:53.033Z,6.97
2018-11-23T20:40:23.396Z,7.07
2018-11-23T20:42:52.768Z,7.19
2018-11-23T20:45:22.221Z,7.17
2018-11-23T20:47:51.643Z,6.98
2018-11-23T20:50:21.066Z,6.50
2018-11-23T20:52:50.429Z,6.55
2018-11-23T20:55:21.696Z,6.60
2018-11-23T20:57:51.279Z,6.49
2018-11-23T21:00:21.625Z,6.55
2018-11-23T21:02:52.850Z,6.74
2018-11-23T21:05:22.959Z,6.75
2018-11-23T21:07:53.212Z,6.65
2018-11-23T21:10:25.004Z,6.86
2018-11-23T21:12:55.413Z,6.96
2018-11-23T21:15:28.451Z,6.83
2018-11-23T21:18:01.589Z,6.68
2018-11-23T21:20:30.027Z,6.74
2018-11-23T21:22:59.412Z,6.94
2018-11-23T21:25:28.777Z,7.13
2018-11-23T21:27:58.092Z,7.21
2018-11-23T21:30:27.408Z,7.02
2018-11-23T21:32:57.582Z,6.88
2018-11-23T21:35:27.034Z,6.76
2018-11-23T21:37:56.343Z,6.83
2018-11-23T21:40:25.841Z,6.84
2018-11-23T21:42:55.226Z,6.88
2018-11-23T21:45:24.508Z,6.75
2018-11-23T21:47:53.879Z,6.90
2018-11-23T21:50:25.589Z,6.79
2018-11-23T21:52:52.988Z,6.89
2018-11-23T21:55:25.941Z,7.10
2018-11-23T21:57:56.616Z,7.20
2018-11-23T22:00:26.260Z,7.22
2018-11-23T22:02:55.769Z,7.23
2018-11-23T22:05:25.074Z,7.23
2018-11-23T22:07:54.535Z,7.37
2018-11-23T22:10:23.853Z,7.48
2018-11-23T22:12:53.515Z,7.45
2018-11-23T22:15:25.064Z,7.30
2018-11-23T22:17:56.217Z,7.36
2018-11-23T22:20:26.828Z,7.38
2018-11-23T22:22:56.141Z,7.57
2018-11-23T22:25:25.574Z,7.51
2018-11-23T22:27:55.062Z,7.45
2018-11-23T22:30:30.212Z,7.49
2018-11-23T22:33:00.028Z,7.42
2018-11-23T22:35:30.506Z,7.10
2018-11-23T22:37:59.814Z,7.19
2018-11-23T22:40:29.726Z,7.38
2018-11-23T22:42:59.913Z,7.20
2018-11-23T22:45:29.207Z,7.30
2018-11-23T22:47:58.544Z,7.43
2018-11-23T22:50:27.914Z,7.49
2018-11-23T22:52:57.313Z,7.58
2018-11-23T22:55:26.763Z,7.56
2018-11-23T22:57:56.145Z,7.59
2018-11-23T23:00:32.954Z,7.64
2018-11-23T23:03:02.237Z,7.55
2018-11-23T23:05:31.565Z,7.73
2018-11-23T23:08:01.001Z,7.63
2018-11-23T23:10:30.642Z,7.74
2018-11-23T23:12:59.972Z,7.77
2018-11-23T23:15:29.346Z,7.75
2018-11-23T23:17:58.684Z,7.64
2018-11-23T23:20:27.944Z,7.78
2018-11-23T23:22:57.316Z,7.77
2018-11-23T23:25:26.613Z,7.63
2018-11-23T23:27:55.950Z,7.63
2018-11-23T23:30:25.313Z,7.58
2018-11-23T23:32:54.575Z,7.41
2018-11-23T23:35:23.868Z,7.39
2018-11-23T23:37:53.188Z,7.37
2018-11-23T23:40:22.716Z,7.38
2018-11-23T23:42:52.184Z,7.56
2018-11-23T23:45:21.831Z,7.48
2018-11-23T23:47:51.148Z,7.63
2018-11-23T23:50:22.617Z,7.38
2018-11-23T23:52:52.352Z,7.58
2018-11-23T23:55:21.701Z,7.57
2018-11-23T23:57:51.895Z,7.42
